createdAt,value
2018-08-21T00:00:02.050Z,0
2018-08-21T00:01:02.071Z,0
2018-08-21T00:03:02.122Z,0
2018-08-21T00:04:16.810Z,0
2018-08-21T00:05:01.664Z,0
2018-08-21T00:06:01.940Z,0
2018-08-21T00:07:02.253Z,0
2018-08-21T00:08:01.725Z,0
2018-08-21T00:09:02.277Z,0
2018-08-21T00:10:02.040Z,0
2018-08-21T00:11:01.799Z,0
2018-08-21T00:12:02.338Z,0
2018-08-21T00:13:02.105Z,0
2018-08-21T00:14:02.387Z,0
2018-08-21T00:15:17.074Z,0
2018-08-21T00:16:17.096Z,0
2018-08-21T00:18:02.485Z,0
2018-08-21T00:20:02.531Z,0
2018-08-21T00:21:02.305Z,0
2018-08-21T00:22:02.597Z,0
2018-08-21T00:23:02.353Z,0
2018-08-21T00:24:02.120Z,0
2018-08-21T00:25:02.142Z,0
2018-08-21T00:26:02.680Z,0
2018-08-21T00:27:02.711Z,0
2018-08-21T00:28:02.731Z,0
2018-08-21T00:29:17.415Z,0
2018-08-21T00:30:17.443Z,0
2018-08-21T00:31:17.519Z,0
2018-08-21T00:32:02.826Z,0
2018-08-21T00:34:02.617Z,0
2018-08-21T00:35:02.644Z,0
2018-08-21T00:36:02.924Z,0
2018-08-21T00:37:02.440Z,0
2018-08-21T00:38:02.978Z,0
2018-08-21T00:39:17.658Z,0
2018-08-21T00:40:03.028Z,0
2018-08-21T00:41:03.046Z,0
2018-08-21T00:42:02.815Z,0
2018-08-21T00:43:03.095Z,0
2018-08-21T00:44:02.863Z,0
2018-08-21T00:45:17.806Z,0
2018-08-21T00:46:03.166Z,0
2018-08-21T00:47:03.198Z,0
2018-08-21T00:49:03.242Z,0
2018-08-21T00:50:03.010Z,0
2018-08-21T00:51:17.963Z,0
2018-08-21T00:52:03.059Z,0
2018-08-21T00:53:18.003Z,0
2018-08-21T00:54:03.367Z,0
2018-08-21T00:55:03.393Z,0
2018-08-21T00:56:03.154Z,0
2018-08-21T00:57:03.469Z,0
2018-08-21T00:58:03.461Z,0
2018-08-21T00:59:03.484Z,0
2018-08-21T01:00:03.252Z,0
2018-08-21T01:01:18.200Z,0
2018-08-21T01:02:03.565Z,0
2018-08-21T01:03:03.448Z,0
2018-08-21T01:05:18.039Z,0
2018-08-21T01:06:03.396Z,0
2018-08-21T01:07:03.685Z,0
2018-08-21T01:08:03.451Z,0
2018-08-21T01:09:03.728Z,0
2018-08-21T01:10:18.422Z,0
2018-08-21T01:11:03.777Z,0
2018-08-21T01:12:03.801Z,0
2018-08-21T01:13:18.493Z,0
2018-08-21T01:14:03.598Z,0
2018-08-21T01:15:03.874Z,0
2018-08-21T01:16:03.901Z,0
2018-08-21T01:17:18.584Z,0
2018-08-21T01:18:03.691Z,0
2018-08-21T01:20:03.745Z,0
2018-08-21T01:21:03.773Z,0
2018-08-21T01:22:04.045Z,0
2018-08-21T01:23:03.810Z,0
2018-08-21T01:24:03.576Z,0
2018-08-21T01:25:03.872Z,0
2018-08-21T01:26:03.628Z,0
2018-08-21T01:27:03.907Z,0
2018-08-21T01:28:03.933Z,0
2018-08-21T01:29:04.213Z,0
2018-08-21T01:31:04.002Z,0
2018-08-21T01:33:04.054Z,0
2018-08-21T01:34:04.078Z,0
2018-08-21T01:35:04.106Z,0
2018-08-21T01:36:03.872Z,0
2018-08-21T01:38:03.920Z,0
2018-08-21T01:39:04.218Z,0
2018-08-21T01:40:04.225Z,0
2018-08-21T01:41:19.169Z,0
2018-08-21T01:42:04.273Z,0
2018-08-21T01:43:18.959Z,0
2018-08-21T01:44:04.325Z,0
2018-08-21T01:45:04.092Z,0
2018-08-21T01:46:04.369Z,0
2018-08-21T01:47:04.650Z,0
2018-08-21T01:48:04.424Z,0
2018-08-21T01:49:04.711Z,0
2018-08-21T01:50:19.390Z,0
2018-08-21T01:51:04.758Z,0
2018-08-21T01:52:04.778Z,0
2018-08-21T01:54:04.828Z,0
2018-08-21T01:55:04.847Z,0
2018-08-21T01:56:04.875Z,0
2018-08-21T01:57:19.299Z,0
2018-08-21T01:58:04.669Z,0
2018-08-21T01:59:04.714Z,0
2018-08-21T02:00:04.971Z,0
2018-08-21T02:01:04.733Z,0
2018-08-21T02:02:05.016Z,0
2018-08-21T02:03:04.779Z,0
2018-08-21T02:04:19.732Z,0
2018-08-21T02:05:05.086Z,0
2018-08-21T02:06:04.862Z,0
2018-08-21T02:07:05.149Z,0
2018-08-21T02:08:19.820Z,0
2018-08-21T02:09:05.184Z,0
2018-08-21T02:10:04.952Z,0
2018-08-21T02:11:05.231Z,0
2018-08-21T02:12:05.262Z,0
2018-08-21T02:13:05.278Z,0
2018-08-21T02:14:05.312Z,0
2018-08-21T02:15:05.330Z,0
2018-08-21T02:16:05.352Z,0
2018-08-21T02:17:05.378Z,0
2018-08-21T02:18:05.142Z,0
2018-08-21T02:19:20.094Z,0
2018-08-21T02:20:19.853Z,0
2018-08-21T02:21:05.476Z,0
2018-08-21T02:22:05.504Z,0
2018-08-21T02:23:20.184Z,0
2018-08-21T02:24:05.546Z,0
2018-08-21T02:25:05.313Z,0
2018-08-21T02:26:05.598Z,0
2018-08-21T02:27:05.625Z,0
2018-08-21T02:28:05.648Z,0
2018-08-21T02:29:05.450Z,0
2018-08-21T02:30:05.691Z,0
2018-08-21T02:31:05.725Z,0
2018-08-21T02:32:06.295Z,0
2018-08-21T02:33:05.769Z,0
2018-08-21T02:34:05.530Z,0
2018-08-21T02:35:05.815Z,0
2018-08-21T02:36:20.494Z,0
2018-08-21T02:37:05.860Z,0
2018-08-21T02:38:05.886Z,0
2018-08-21T02:39:05.653Z,0
2018-08-21T02:40:05.934Z,0
2018-08-21T02:41:05.705Z,0
2018-08-21T02:42:05.732Z,0
2018-08-21T02:43:06.009Z,0
2018-08-21T02:44:05.770Z,0
2018-08-21T02:45:05.797Z,0
2018-08-21T02:46:06.079Z,0
2018-08-21T02:47:05.851Z,0
2018-08-21T02:48:06.241Z,0
2018-08-21T02:49:20.815Z,0
2018-08-21T02:50:05.656Z,0
2018-08-21T02:51:06.195Z,0
2018-08-21T02:52:20.883Z,0
2018-08-21T02:53:05.991Z,0
2018-08-21T02:54:06.015Z,0
2018-08-21T02:55:06.034Z,0
2018-08-21T02:56:06.057Z,0
2018-08-21T02:57:06.090Z,0
2018-08-21T02:58:06.368Z,0
2018-08-21T02:59:06.200Z,0
2018-08-21T03:00:21.079Z,0
2018-08-21T03:01:06.189Z,0
2018-08-21T03:02:06.202Z,0
2018-08-21T03:03:06.232Z,0
2018-08-21T03:04:06.511Z,0
2018-08-21T03:05:21.205Z,0
2018-08-21T03:06:06.556Z,0
2018-08-21T03:07:21.250Z,0
2018-08-21T03:08:06.349Z,0
2018-08-21T03:09:06.631Z,0
2018-08-21T03:10:06.407Z,0
2018-08-21T03:11:06.520Z,0
2018-08-21T03:12:06.200Z,0
2018-08-21T03:13:06.214Z,0
2018-08-21T03:14:06.751Z,0
2018-08-21T03:15:21.437Z,0
2018-08-21T03:16:06.546Z,0
2018-08-21T03:17:21.225Z,0
2018-08-21T03:18:06.850Z,0
2018-08-21T03:19:06.873Z,0
2018-08-21T03:20:06.895Z,0
2018-08-21T03:21:06.412Z,0
2018-08-21T03:22:06.686Z,0
2018-08-21T03:23:21.629Z,0
2018-08-21T03:24:07.007Z,0
2018-08-21T03:25:07.023Z,0
2018-08-21T03:26:06.783Z,0
2018-08-21T03:27:07.063Z,0
2018-08-21T03:28:06.831Z,0
2018-08-21T03:29:21.791Z,0
2018-08-21T03:30:06.623Z,0
2018-08-21T03:31:06.909Z,0
2018-08-21T03:32:06.721Z,4
2018-08-21T03:33:21.610Z,4
2018-08-21T03:34:06.719Z,4
2018-08-21T03:35:21.924Z,0
2018-08-21T03:36:06.767Z,4
2018-08-21T03:37:07.303Z,4
2018-08-21T03:38:07.071Z,4
2018-08-21T03:40:07.116Z,8
2018-08-21T03:41:06.886Z,8
2018-08-21T03:42:07.421Z,8
2018-08-21T03:43:07.504Z,12
2018-08-21T03:44:07.210Z,16
2018-08-21T03:45:07.239Z,16
2018-08-21T03:46:22.183Z,20
2018-08-21T03:47:07.541Z,20
2018-08-21T03:48:07.151Z,20
2018-08-21T03:49:21.993Z,28
2018-08-21T03:50:07.354Z,28
2018-08-21T03:51:07.122Z,32
2018-08-21T03:53:07.430Z,36
2018-08-21T03:54:07.710Z,40
2018-08-21T03:56:07.509Z,48
2018-08-21T03:57:07.534Z,52
2018-08-21T03:58:07.548Z,60
2018-08-21T03:59:07.829Z,64
2018-08-21T04:00:22.618Z,68
2018-08-21T04:01:07.878Z,76
2018-08-21T04:02:07.913Z,84
2018-08-21T04:03:07.405Z,92
2018-08-21T04:04:22.609Z,104
2018-08-21T04:06:07.747Z,120
2018-08-21T04:07:07.770Z,128
2018-08-21T04:08:08.047Z,136
2018-08-21T04:09:08.076Z,144
2018-08-21T04:10:07.862Z,156
2018-08-21T04:11:22.778Z,172
2018-08-21T04:12:07.893Z,184
2018-08-21T04:13:08.164Z,200
2018-08-21T04:14:07.929Z,220
2018-08-21T04:15:07.967Z,240
2018-08-21T04:16:08.235Z,260
2018-08-21T04:17:08.262Z,284
2018-08-21T04:18:08.282Z,312
2018-08-21T04:19:08.312Z,352
2018-08-21T04:20:08.334Z,392
2018-08-21T04:21:22.756Z,476
2018-08-21T04:22:08.384Z,524
2018-08-21T04:23:08.409Z,588
2018-08-21T04:24:08.428Z,640
2018-08-21T04:25:08.454Z,688
2018-08-21T04:26:08.218Z,756
2018-08-21T04:27:23.160Z,864
2018-08-21T04:28:08.525Z,932
2018-08-21T04:29:08.546Z,1036
2018-08-21T04:30:08.311Z,1164
2018-08-21T04:31:08.076Z,1300
2018-08-21T04:32:08.362Z,1436
2018-08-21T04:33:08.133Z,1556
2018-08-21T04:34:23.329Z,1756
2018-08-21T04:35:23.093Z,1928
2018-08-21T04:36:08.461Z,2028
2018-08-21T04:37:08.495Z,2208
2018-08-21T04:38:09.013Z,2440
2018-08-21T04:39:08.785Z,2668
2018-08-21T04:40:08.550Z,2892
2018-08-21T04:41:08.832Z,3136
2018-08-21T04:42:23.262Z,3412
2018-08-21T04:43:08.620Z,3580
2018-08-21T04:44:08.917Z,3848
2018-08-21T04:45:08.678Z,4152
2018-08-21T04:46:08.736Z,4444
2018-08-21T04:47:08.459Z,4624
2018-08-21T04:48:09.002Z,4936
2018-08-21T04:49:08.776Z,5328
2018-08-21T04:50:08.528Z,5636
2018-08-21T04:51:08.816Z,5936
2018-08-21T04:52:09.088Z,6364
2018-08-21T04:53:08.870Z,7392
2018-08-21T04:54:09.142Z,8208
2018-08-21T04:55:09.171Z,10808
2018-08-21T04:56:08.933Z,15904
2018-08-21T04:57:09.211Z,17184
2018-08-21T04:58:09.246Z,18656
2018-08-21T04:59:09.563Z,20000
2018-08-21T05:00:08.794Z,17632
2018-08-21T05:01:09.053Z,19104
2018-08-21T05:02:09.077Z,19104
2018-08-21T05:04:08.884Z,22560
2018-08-21T05:05:24.070Z,22912
2018-08-21T05:06:09.432Z,23296
2018-08-21T05:08:09.490Z,24000
2018-08-21T05:09:09.507Z,20960
2018-08-21T05:10:09.535Z,26304
2018-08-21T05:11:09.556Z,26464
2018-08-21T05:12:09.616Z,27520
2018-08-21T05:13:09.352Z,27808
2018-08-21T05:14:24.035Z,28544
2018-08-21T05:15:09.402Z,29248
2018-08-21T05:16:09.427Z,29856
2018-08-21T05:17:24.117Z,29600
2018-08-21T05:18:24.687Z,29984
2018-08-21T05:19:09.506Z,29792
2018-08-21T05:22:09.853Z,31840
2018-08-21T05:23:09.883Z,31840
2018-08-21T05:24:09.898Z,32928
2018-08-21T05:25:09.665Z,32832
2018-08-21T05:26:09.961Z,33312
2018-08-21T05:27:09.978Z,34048
2018-08-21T05:28:09.756Z,33696
2018-08-21T05:29:09.779Z,35424
2018-08-21T05:30:24.464Z,36032
2018-08-21T05:31:10.099Z,37024
2018-08-21T05:32:09.610Z,37952
2018-08-21T05:33:24.804Z,34368
2018-08-21T05:36:10.224Z,34976
2018-08-21T05:37:10.256Z,36576
2018-08-21T05:38:10.022Z,39808
2018-08-21T05:39:10.314Z,39936
2018-08-21T05:40:25.005Z,42080
2018-08-21T05:41:10.242Z,43168
2018-08-21T05:42:10.396Z,43168
2018-08-21T05:43:10.440Z,43936
2018-08-21T05:44:10.465Z,42816
2018-08-21T05:45:10.222Z,44032
2018-08-21T05:46:25.172Z,44992
2018-08-21T05:47:10.026Z,45568
2018-08-21T05:48:10.574Z,47200
2018-08-21T05:49:10.445Z,48000
2018-08-21T05:51:10.663Z,46144
2018-08-21T05:52:10.429Z,44448
2018-08-21T05:53:10.458Z,46144
2018-08-21T05:54:10.519Z,48480
2018-08-21T05:55:10.563Z,49856
2018-08-21T05:56:10.809Z,49056
2018-08-21T05:57:10.577Z,49728
2018-08-21T05:58:10.863Z,50048
2018-08-21T05:59:10.378Z,49312
2018-08-21T06:00:10.669Z,51168
2018-08-21T06:01:10.964Z,50240
2018-08-21T06:02:25.650Z,50304
2018-08-21T06:03:11.022Z,52672
2018-08-21T06:04:10.273Z,51680
2018-08-21T06:05:25.484Z,49760
2018-08-21T06:06:11.111Z,51904
2018-08-21T06:07:11.141Z,54240
2018-08-21T06:08:11.464Z,53312
2018-08-21T06:09:11.203Z,53056
2018-08-21T06:10:10.988Z,53152
2018-08-21T06:11:11.267Z,52864
2018-08-21T06:12:11.041Z,50688
2018-08-21T06:13:11.072Z,52128
2018-08-21T06:14:11.734Z,51936
2018-08-21T06:15:25.805Z,54912
2018-08-21T06:16:11.168Z,55072
2018-08-21T06:17:26.123Z,53984
2018-08-21T06:18:11.488Z,54560
2018-08-21T06:19:11.008Z,55072
2018-08-21T06:20:11.300Z,56736
2018-08-21T06:21:11.591Z,56352
2018-08-21T06:22:11.407Z,56064
2018-08-21T06:23:11.667Z,56160
2018-08-21T06:24:11.693Z,55840
2018-08-21T06:25:11.727Z,57504
2018-08-21T06:26:26.417Z,58016
2018-08-21T06:27:11.520Z,58112
2018-08-21T06:28:11.819Z,59008
2018-08-21T06:29:11.848Z,58592
2018-08-21T06:30:11.929Z,55808
2018-08-21T06:32:12.007Z,46080
2018-08-21T06:33:11.718Z,47712
2018-08-21T06:34:11.748Z,48768
2018-08-21T06:35:11.789Z,50208
2018-08-21T06:36:12.000Z,54208
2018-08-21T06:37:11.948Z,59264
2018-08-21T06:38:12.505Z,64032
2018-08-21T06:39:12.172Z,63904
2018-08-21T06:41:11.989Z,58336
2018-08-21T06:42:12.015Z,58880
2018-08-21T06:43:26.974Z,61632
2018-08-21T06:44:11.826Z,63424
2018-08-21T06:46:12.154Z,65952
2018-08-21T06:47:12.437Z,69504
2018-08-21T06:48:12.219Z,70848
2018-08-21T06:49:27.163Z,68256
2018-08-21T06:50:26.942Z,67744
2018-08-21T06:51:12.576Z,67296
2018-08-21T06:52:12.609Z,68352
2018-08-21T06:53:13.188Z,69024
2018-08-21T06:54:27.344Z,64896
2018-08-21T06:55:12.742Z,63808
2018-08-21T06:56:12.737Z,61952
2018-08-21T06:57:12.511Z,62240
2018-08-21T06:58:12.817Z,66048
2018-08-21T06:59:12.585Z,69696
2018-08-21T07:00:12.508Z,68640
2018-08-21T07:01:27.571Z,70496
2018-08-21T07:02:12.680Z,67360
2018-08-21T07:03:12.981Z,69600
2018-08-21T07:04:13.003Z,72416
2018-08-21T07:05:27.443Z,70368
2018-08-21T07:06:12.554Z,68960
2018-08-21T07:07:27.777Z,69952
2018-08-21T07:08:13.160Z,70688
2018-08-21T07:09:12.916Z,70816
2018-08-21T07:10:13.214Z,70336
2018-08-21T07:11:13.247Z,69632
2018-08-21T07:12:13.022Z,71104
2018-08-21T07:13:13.306Z,71200
2018-08-21T07:14:13.360Z,69920
2018-08-21T07:15:13.118Z,69728
2018-08-21T07:16:13.408Z,70912
2018-08-21T07:17:12.930Z,69984
2018-08-21T07:18:13.216Z,68704
2018-08-21T07:19:13.565Z,67808
2018-08-21T07:20:13.546Z,68992
2018-08-21T07:21:27.984Z,65472
2018-08-21T07:22:13.844Z,65664
2018-08-21T07:24:13.701Z,65600
2018-08-21T07:26:13.745Z,67680
2018-08-21T07:28:13.820Z,67360
2018-08-21T07:29:13.973Z,67648
2018-08-21T07:30:13.896Z,69184
2018-08-21T07:31:13.677Z,69152
2018-08-21T07:32:13.958Z,68800
2018-08-21T07:33:13.991Z,70176
2018-08-21T07:34:13.776Z,70272
2018-08-21T07:35:14.135Z,66464
2018-08-21T07:36:14.105Z,62720
2018-08-21T07:37:43.201Z,61984
2018-08-21T07:38:13.916Z,63488
2018-08-21T07:39:13.943Z,66368
2018-08-21T07:40:13.977Z,64864
2018-08-21T07:41:14.268Z,63008
2018-08-21T07:42:14.052Z,63360
2018-08-21T07:43:14.105Z,64128
2018-08-21T07:45:29.076Z,62080
2018-08-21T07:46:14.523Z,62304
2018-08-21T07:47:14.484Z,61536
2018-08-21T07:48:14.257Z,61376
2018-08-21T07:49:14.299Z,58208
2018-08-21T07:50:14.628Z,55808
2018-08-21T07:51:14.359Z,55680
2018-08-21T07:52:29.331Z,57184
2018-08-21T07:53:14.694Z,57344
2018-08-21T07:54:14.727Z,59104
2018-08-21T07:55:14.503Z,58624
2018-08-21T07:56:14.795Z,58688
2018-08-21T07:57:14.573Z,56992
2018-08-21T07:59:14.980Z,55968
2018-08-21T08:01:14.704Z,55712
2018-08-21T08:02:29.649Z,56224
2018-08-21T08:03:14.535Z,58368
2018-08-21T08:04:14.293Z,56320
2018-08-21T08:05:14.900Z,55328
2018-08-21T08:06:14.872Z,55680
2018-08-21T08:07:14.968Z,55072
2018-08-21T08:08:15.328Z,52064
2018-08-21T08:10:15.268Z,53248
2018-08-21T08:11:15.304Z,55328
2018-08-21T08:12:15.344Z,55392
2018-08-21T08:14:15.434Z,23360
2018-08-21T08:15:14.672Z,54784
2018-08-21T08:16:14.950Z,56704
2018-08-21T08:17:15.517Z,55200
2018-08-21T08:18:15.554Z,53984
2018-08-21T08:19:15.175Z,30304
2018-08-21T08:20:15.839Z,54912
2018-08-21T08:21:15.398Z,22240
2018-08-21T08:22:15.413Z,54624
2018-08-21T08:23:16.261Z,52288
2018-08-21T08:24:30.407Z,58880
2018-08-21T08:25:15.784Z,56416
2018-08-21T08:26:15.549Z,57024
2018-08-21T08:27:15.843Z,21152
2018-08-21T08:28:15.864Z,22624
2018-08-21T08:29:16.263Z,18688
2018-08-21T08:30:30.598Z,22400
2018-08-21T08:31:15.988Z,21056
2018-08-21T08:32:16.444Z,50816
2018-08-21T08:33:16.046Z,20064
2018-08-21T08:34:15.560Z,18656
2018-08-21T08:35:30.776Z,49632
2018-08-21T08:36:15.620Z,41728
2018-08-21T08:37:16.171Z,21824
2018-08-21T08:38:16.214Z,17732
2018-08-21T08:39:15.975Z,49184
2018-08-21T08:40:31.141Z,48256
2018-08-21T08:41:16.300Z,40480
2018-08-21T08:42:30.980Z,47264
2018-08-21T08:43:16.375Z,47360
2018-08-21T08:44:16.403Z,48896
2018-08-21T08:45:16.162Z,42080
2018-08-21T08:46:16.205Z,20992
2018-08-21T08:47:16.483Z,35616
2018-08-21T08:48:31.185Z,19040
2018-08-21T08:49:16.562Z,16840
2018-08-21T08:50:16.377Z,19360
2018-08-21T08:51:16.626Z,26976
2018-08-21T08:52:16.662Z,21344
2018-08-21T08:53:16.695Z,17920
2018-08-21T08:54:16.463Z,17232
2018-08-21T08:55:16.745Z,17268
2018-08-21T08:56:31.634Z,16364
2018-08-21T08:57:16.841Z,16164
2018-08-21T08:58:16.579Z,16028
2018-08-21T08:59:16.740Z,18144
2018-08-21T09:00:16.637Z,20928
2018-08-21T09:01:16.705Z,16044
2018-08-21T09:02:31.369Z,16812
2018-08-21T09:03:16.731Z,17504
2018-08-21T09:04:17.034Z,16544
2018-08-21T09:05:17.435Z,16684
2018-08-21T09:06:17.084Z,25472
2018-08-21T09:07:31.513Z,17824
2018-08-21T09:08:17.207Z,17664
2018-08-21T09:09:17.220Z,18912
2018-08-21T09:10:16.961Z,19264
2018-08-21T09:11:17.256Z,18208
2018-08-21T09:12:31.931Z,19040
2018-08-21T09:13:17.313Z,28704
2018-08-21T09:14:17.076Z,23040
2018-08-21T09:15:17.108Z,27104
2018-08-21T09:16:17.396Z,19680
2018-08-21T09:17:17.238Z,19648
2018-08-21T09:18:17.555Z,15884
2018-08-21T09:19:17.501Z,19200
2018-08-21T09:20:32.167Z,14344
2018-08-21T09:21:17.533Z,16884
2018-08-21T09:22:17.563Z,13560
2018-08-21T09:23:17.601Z,24576
2018-08-21T09:24:17.626Z,24416
2018-08-21T09:25:17.664Z,24480
2018-08-21T09:26:17.698Z,24288
2018-08-21T09:27:32.172Z,25888
2018-08-21T09:28:17.494Z,26336
2018-08-21T09:29:32.239Z,26336
2018-08-21T09:30:17.807Z,18176
2018-08-21T09:31:17.879Z,23968
2018-08-21T09:32:17.887Z,24992
2018-08-21T09:33:17.651Z,19648
2018-08-21T09:34:17.929Z,24416
2018-08-21T09:35:32.373Z,25952
2018-08-21T09:36:17.745Z,17824
2018-08-21T09:37:18.056Z,18016
2018-08-21T09:38:18.482Z,15008
2018-08-21T09:39:17.630Z,14840
2018-08-21T09:40:33.003Z,14764
2018-08-21T09:41:18.153Z,18880
2018-08-21T09:42:17.678Z,12996
2018-08-21T09:43:32.628Z,12256
2018-08-21T09:44:17.725Z,12260
2018-08-21T09:45:18.360Z,16608
2018-08-21T09:46:32.965Z,11444
2018-08-21T09:47:18.076Z,16812
2018-08-21T09:48:18.371Z,14124
2018-08-21T09:50:33.087Z,19296
2018-08-21T09:51:18.453Z,19200
2018-08-21T09:52:18.484Z,19328
2018-08-21T09:53:32.917Z,19872
2018-08-21T09:56:18.338Z,20224
2018-08-21T09:57:18.650Z,20448
2018-08-21T09:58:18.671Z,12272
2018-08-21T09:59:33.087Z,17824
2018-08-21T10:01:18.751Z,20320
2018-08-21T10:03:33.464Z,19136
2018-08-21T10:05:18.606Z,19232
2018-08-21T10:07:18.934Z,19712
2018-08-21T10:08:33.363Z,16772
2018-08-21T10:09:33.394Z,20832
2018-08-21T10:10:19.033Z,19392
2018-08-21T10:11:18.790Z,18144
2018-08-21T10:12:18.823Z,14060
2018-08-21T10:13:19.106Z,21408
2018-08-21T10:14:18.895Z,17440
2018-08-21T10:15:33.574Z,20576
2018-08-21T10:16:19.209Z,20256
2018-08-21T10:17:19.242Z,19680
2018-08-21T10:18:19.273Z,12088
2018-08-21T10:20:33.726Z,18592
2018-08-21T10:21:18.838Z,18080
2018-08-21T10:22:19.123Z,17440
2018-08-21T10:23:19.160Z,16832
2018-08-21T10:24:34.162Z,16564
2018-08-21T10:25:19.220Z,16460
2018-08-21T10:26:19.503Z,16336
2018-08-21T10:27:19.281Z,16360
2018-08-21T10:28:34.233Z,16340
2018-08-21T10:29:19.352Z,16216
2018-08-21T10:30:34.292Z,16192
2018-08-21T10:31:34.331Z,16392
2018-08-21T10:32:19.684Z,16604
2018-08-21T10:33:19.726Z,16940
2018-08-21T10:34:19.750Z,17568
2018-08-21T10:35:19.779Z,18272
2018-08-21T10:36:19.812Z,18720
2018-08-21T10:37:19.835Z,19072
2018-08-21T10:39:19.744Z,19008
2018-08-21T10:40:19.937Z,19008
2018-08-21T10:41:19.965Z,18624
2018-08-21T10:42:34.402Z,14560
2018-08-21T10:43:19.766Z,11452
2018-08-21T10:44:20.053Z,16704
2018-08-21T10:45:20.079Z,18240
2018-08-21T10:46:19.850Z,18080
2018-08-21T10:47:34.803Z,18048
2018-08-21T10:48:34.576Z,11320
2018-08-21T10:49:20.198Z,14424
2018-08-21T10:50:20.227Z,17408
2018-08-21T10:51:20.261Z,16788
2018-08-21T10:52:20.046Z,16428
2018-08-21T10:53:20.066Z,16188
2018-08-21T10:54:20.095Z,15888
2018-08-21T10:55:20.375Z,15788
2018-08-21T10:56:20.413Z,15936
2018-08-21T10:57:20.224Z,15172
2018-08-21T10:58:20.206Z,9628
2018-08-21T10:59:20.243Z,9240
2018-08-21T11:00:34.934Z,14020
2018-08-21T11:01:20.557Z,8832
2018-08-21T11:02:34.985Z,8312
2018-08-21T11:03:20.353Z,8216
2018-08-21T11:04:20.643Z,8104
2018-08-21T11:06:20.705Z,8092
2018-08-21T11:08:20.239Z,12260
2018-08-21T11:09:20.535Z,11896
2018-08-21T11:10:20.559Z,11764
2018-08-21T11:11:20.325Z,11840
2018-08-21T11:12:20.938Z,12136
2018-08-21T11:13:20.388Z,12328
2018-08-21T11:14:20.932Z,12312
2018-08-21T11:15:20.958Z,12304
2018-08-21T11:16:20.993Z,12328
2018-08-21T11:17:21.009Z,12308
2018-08-21T11:18:35.823Z,12444
2018-08-21T11:19:20.654Z,12496
2018-08-21T11:20:21.104Z,12440
2018-08-21T11:21:21.085Z,11860
2018-08-21T11:22:20.642Z,12100
2018-08-21T11:23:20.924Z,9604
2018-08-21T11:24:21.562Z,9412
2018-08-21T11:25:20.733Z,9488
2018-08-21T11:26:21.012Z,9552
2018-08-21T11:27:21.297Z,9660
2018-08-21T11:28:21.327Z,11304
2018-08-21T11:29:21.350Z,10952
2018-08-21T11:30:21.390Z,9980
2018-08-21T11:31:21.511Z,9448
2018-08-21T11:32:21.440Z,9344
2018-08-21T11:33:21.461Z,8996
2018-08-21T11:34:36.150Z,8716
2018-08-21T11:35:21.527Z,8608
2018-08-21T11:36:21.552Z,8488
2018-08-21T11:37:36.233Z,8252
2018-08-21T11:38:21.605Z,8112
2018-08-21T11:39:21.631Z,8016
2018-08-21T11:40:21.665Z,7944
2018-08-21T11:41:21.682Z,7876
2018-08-21T11:42:21.753Z,7832
2018-08-21T11:43:21.501Z,7768
2018-08-21T11:44:36.180Z,7684
2018-08-21T11:45:21.812Z,7648
2018-08-21T11:46:36.493Z,7588
2018-08-21T11:47:21.595Z,7596
2018-08-21T11:48:21.799Z,7596
2018-08-21T11:49:21.656Z,7576
2018-08-21T11:50:36.598Z,7764
2018-08-21T11:52:22.000Z,7768
2018-08-21T11:54:21.539Z,7732
2018-08-21T11:55:36.486Z,7896
2018-08-21T11:56:21.865Z,8012
2018-08-21T11:57:36.799Z,8000
2018-08-21T11:58:22.162Z,7720
2018-08-21T12:00:21.957Z,7088
2018-08-21T12:01:21.989Z,7032
2018-08-21T12:02:22.014Z,7000
2018-08-21T12:03:22.513Z,7060
2018-08-21T12:04:36.746Z,7068
2018-08-21T12:05:22.099Z,7024
2018-08-21T12:06:36.788Z,6972
2018-08-21T12:07:22.160Z,6876
2018-08-21T12:08:22.443Z,6936
2018-08-21T12:09:22.210Z,6952
2018-08-21T12:10:22.249Z,6924
2018-08-21T12:11:22.524Z,6908
2018-08-21T12:12:22.290Z,6964
2018-08-21T12:14:37.055Z,6904
2018-08-21T12:15:37.293Z,6848
2018-08-21T12:16:22.399Z,6876
2018-08-21T12:17:37.352Z,6948
2018-08-21T12:18:22.725Z,6988
2018-08-21T12:20:22.776Z,6828
2018-08-21T12:21:22.805Z,6756
2018-08-21T12:22:37.227Z,6672
2018-08-21T12:23:37.561Z,6652
2018-08-21T12:24:23.084Z,6640
2018-08-21T12:25:22.657Z,6616
2018-08-21T12:26:22.937Z,6604
2018-08-21T12:27:22.703Z,6596
2018-08-21T12:28:22.729Z,6596
2018-08-21T12:29:37.688Z,6636
2018-08-21T12:30:23.048Z,6612
2018-08-21T12:31:37.738Z,4588
2018-08-21T12:32:22.881Z,4660
2018-08-21T12:33:23.131Z,6612
2018-08-21T12:34:23.074Z,6588
2018-08-21T12:35:23.196Z,6580
2018-08-21T12:37:37.945Z,6572
2018-08-21T12:38:23.230Z,6600
2018-08-21T12:39:23.303Z,6580
2018-08-21T12:40:23.328Z,6556
2018-08-21T12:41:23.095Z,6564
2018-08-21T12:42:38.040Z,6532
2018-08-21T12:43:23.396Z,6520
2018-08-21T12:44:37.932Z,6508
2018-08-21T12:45:23.452Z,6496
2018-08-21T12:46:38.143Z,6512
2018-08-21T12:47:23.532Z,6532
2018-08-21T12:48:23.277Z,6504
2018-08-21T12:49:23.307Z,6476
2018-08-21T12:50:38.297Z,6436
2018-08-21T12:51:23.623Z,6432
2018-08-21T12:52:23.392Z,6436
2018-08-21T12:53:23.677Z,6524
2018-08-21T12:54:23.443Z,6540
2018-08-21T12:55:23.472Z,6552
2018-08-21T12:56:38.414Z,6512
2018-08-21T12:57:23.779Z,6488
2018-08-21T12:58:23.809Z,6464
2018-08-21T12:59:23.582Z,6448
2018-08-21T13:00:23.794Z,6424
2018-08-21T13:01:23.115Z,6416
2018-08-21T13:02:38.581Z,6412
2018-08-21T13:03:23.946Z,6396
2018-08-21T13:04:23.715Z,6392
2018-08-21T13:05:23.488Z,6376
2018-08-21T13:06:23.524Z,6372
2018-08-21T13:07:24.156Z,6392
2018-08-21T13:08:23.819Z,6412
2018-08-21T13:09:38.768Z,6432
2018-08-21T13:10:24.025Z,6448
2018-08-21T13:11:24.172Z,6440
2018-08-21T13:12:24.191Z,6436
2018-08-21T13:13:23.956Z,6444
2018-08-21T13:14:24.246Z,6432
2018-08-21T13:15:24.012Z,6464
2018-08-21T13:17:24.323Z,6456
2018-08-21T13:18:24.349Z,6468
2018-08-21T13:19:24.381Z,6480
2018-08-21T13:20:24.402Z,6480
2018-08-21T13:21:24.435Z,6488
2018-08-21T13:22:24.197Z,6496
2018-08-21T13:23:24.498Z,6468
2018-08-21T13:24:24.252Z,6468
2018-08-21T13:25:38.940Z,6464
2018-08-21T13:26:24.571Z,6484
2018-08-21T13:27:24.331Z,6500
2018-08-21T13:30:24.434Z,6456
2018-08-21T13:31:24.697Z,6460
2018-08-21T13:32:24.724Z,6464
2018-08-21T13:33:24.243Z,6472
2018-08-21T13:34:24.788Z,6472
2018-08-21T13:35:39.465Z,6472
2018-08-21T13:36:25.246Z,6460
2018-08-21T13:37:24.601Z,6436
2018-08-21T13:38:24.889Z,6456
2018-08-21T13:39:24.395Z,6468
2018-08-21T13:40:24.935Z,6464
2018-08-21T13:41:39.625Z,6484
2018-08-21T13:43:25.025Z,6452
2018-08-21T13:44:25.468Z,6428
2018-08-21T13:45:25.077Z,6396
2018-08-21T13:46:24.865Z,6404
2018-08-21T13:47:24.876Z,6420
2018-08-21T13:48:39.816Z,6456
2018-08-21T13:49:39.842Z,6412
2018-08-21T13:50:24.948Z,6416
2018-08-21T13:51:39.900Z,6380
2018-08-21T13:52:39.662Z,6376
2018-08-21T13:53:25.283Z,6368
2018-08-21T13:54:25.066Z,6384
2018-08-21T13:55:24.837Z,6388
2018-08-21T13:56:25.366Z,6392
2018-08-21T13:57:40.054Z,6408
2018-08-21T13:58:25.169Z,6416
2018-08-21T14:00:25.217Z,6380
2018-08-21T14:02:25.531Z,6352
2018-08-21T14:03:25.553Z,6348
2018-08-21T14:04:25.323Z,6308
2018-08-21T14:06:25.377Z,6292
2018-08-21T14:07:25.662Z,6280
2018-08-21T14:08:25.795Z,6272
2018-08-21T14:09:25.720Z,6244
2018-08-21T14:10:25.485Z,6280
2018-08-21T14:11:25.765Z,6304
2018-08-21T14:12:40.706Z,6296
2018-08-21T14:13:25.825Z,6268
2018-08-21T14:14:25.591Z,6276
2018-08-21T14:15:25.365Z,6264
2018-08-21T14:16:25.903Z,6232
2018-08-21T14:17:25.939Z,6232
2018-08-21T14:18:25.961Z,6288
2018-08-21T14:19:25.472Z,5684
2018-08-21T14:20:25.496Z,6036
2018-08-21T14:21:26.037Z,6080
2018-08-21T14:22:26.144Z,6236
2018-08-21T14:23:25.841Z,5236
2018-08-21T14:24:26.126Z,5200
2018-08-21T14:25:25.629Z,4476
2018-08-21T14:26:26.176Z,6180